createdAt,value
2018-06-03T00:01:21.843Z,19.10
2018-06-03T00:06:18.703Z,19.10
2018-06-03T00:08:47.770Z,19.00
2018-06-03T00:11:16.352Z,19.20
2018-06-03T00:13:45.555Z,19.00
2018-06-03T00:16:13.732Z,19.10
2018-06-03T00:18:41.970Z,19.00
2018-06-03T00:21:53.768Z,19.00
2018-06-03T00:24:21.951Z,19.00
2018-06-03T00:26:50.693Z,18.90
2018-06-03T00:29:21.248Z,18.90
2018-06-03T00:31:51.191Z,19.10
2018-06-03T00:34:19.913Z,18.90
2018-06-03T00:36:49.118Z,18.80
2018-06-03T00:39:17.323Z,18.80
2018-06-03T00:41:45.615Z,18.80
2018-06-03T00:44:13.851Z,18.70
2018-06-03T00:46:42.507Z,18.70
2018-06-03T00:49:10.720Z,18.80
2018-06-03T00:51:39.181Z,18.60
2018-06-03T00:54:07.610Z,18.60
2018-06-03T00:57:22.691Z,18.60
2018-06-03T00:59:51.136Z,18.50
2018-06-03T01:02:19.949Z,18.50
2018-06-03T01:04:49.830Z,18.50
2018-06-03T01:07:17.995Z,18.40
2018-06-03T01:09:46.321Z,18.30
2018-06-03T01:12:15.354Z,18.20
2018-06-03T01:14:43.879Z,18.20
2018-06-03T01:17:12.316Z,18.20
2018-06-03T01:19:40.538Z,18.20
2018-06-03T01:22:08.727Z,18.10
2018-06-03T01:24:37.050Z,18.00
2018-06-03T01:27:05.633Z,18.00
2018-06-03T01:29:34.097Z,18.00
2018-06-03T01:32:02.607Z,18.00
2018-06-03T01:34:30.959Z,18.10
2018-06-03T01:36:59.564Z,18.20
2018-06-03T01:39:28.246Z,18.10
2018-06-03T01:41:56.766Z,18.00
2018-06-03T01:44:24.970Z,18.00
2018-06-03T01:46:53.244Z,18.00
2018-06-03T01:49:21.450Z,18.30
2018-06-03T01:51:50.028Z,18.00
2018-06-03T01:54:18.235Z,18.00
2018-06-03T01:56:46.733Z,17.90
2018-06-03T01:59:15.212Z,17.90
2018-06-03T02:01:43.462Z,17.80
2018-06-03T02:04:12.747Z,17.70
2018-06-03T02:06:40.977Z,17.70
2018-06-03T02:09:10.044Z,17.60
2018-06-03T02:11:38.424Z,17.60
2018-06-03T02:14:06.682Z,17.50
2018-06-03T02:16:35.181Z,17.50
2018-06-03T02:19:03.789Z,17.50
2018-06-03T02:21:32.038Z,17.50
2018-06-03T02:24:00.310Z,17.60
2018-06-03T02:26:28.625Z,17.50
2018-06-03T02:28:56.943Z,17.50
2018-06-03T02:31:25.231Z,17.50
2018-06-03T02:33:53.507Z,17.50
2018-06-03T02:36:21.697Z,17.50
2018-06-03T02:38:50.276Z,17.50
2018-06-03T02:41:18.522Z,17.40
2018-06-03T02:43:47.522Z,17.40
2018-06-03T02:46:15.759Z,17.40
2018-06-03T02:48:44.044Z,17.40
2018-06-03T02:51:12.224Z,17.50
2018-06-03T02:53:40.441Z,17.40
2018-06-03T02:56:08.664Z,17.40
2018-06-03T02:58:38.916Z,17.50
2018-06-03T03:01:07.091Z,17.50
2018-06-03T03:03:35.295Z,17.50
2018-06-03T03:06:04.263Z,17.50
2018-06-03T03:08:32.829Z,17.40
2018-06-03T03:11:01.670Z,17.30
2018-06-03T03:13:30.124Z,17.30
2018-06-03T03:16:00.276Z,17.30
2018-06-03T03:18:28.507Z,17.20
2018-06-03T03:20:56.736Z,17.20
2018-06-03T03:23:25.274Z,17.20
2018-06-03T03:25:53.650Z,17.30
2018-06-03T03:28:21.855Z,17.30
2018-06-03T03:30:50.386Z,17.50
2018-06-03T03:33:18.904Z,17.30
2018-06-03T03:35:47.393Z,17.30
2018-06-03T03:38:15.535Z,17.30
2018-06-03T03:40:44.101Z,17.30
2018-06-03T03:43:15.829Z,17.30
2018-06-03T03:45:44.023Z,17.40
2018-06-03T03:50:40.756Z,17.30
2018-06-03T03:53:09.057Z,17.30
2018-06-03T03:58:05.607Z,17.30
2018-06-03T04:00:34.039Z,17.30
2018-06-03T04:03:02.589Z,17.40
2018-06-03T04:05:31.595Z,17.40
2018-06-03T04:08:00.676Z,17.50
2018-06-03T04:10:28.883Z,17.60
2018-06-03T04:12:57.118Z,17.60
2018-06-03T04:15:26.075Z,17.60
2018-06-03T04:17:54.577Z,17.70
2018-06-03T04:20:23.079Z,17.60
2018-06-03T04:22:52.074Z,17.70
2018-06-03T04:25:20.661Z,17.70
2018-06-03T04:27:49.161Z,17.90
2018-06-03T04:30:18.121Z,18.00
2018-06-03T04:32:46.308Z,18.10
2018-06-03T04:35:14.529Z,18.10
2018-06-03T04:37:42.866Z,18.10
2018-06-03T04:40:11.449Z,18.10
2018-06-03T04:42:39.959Z,18.10
2018-06-03T04:45:08.263Z,18.20
2018-06-03T04:47:36.881Z,18.20
2018-06-03T04:50:05.471Z,18.20
2018-06-03T04:52:33.839Z,18.10
2018-06-03T04:55:02.095Z,18.10
2018-06-03T04:57:30.293Z,18.00
2018-06-03T05:02:26.950Z,18.10
2018-06-03T05:04:55.183Z,18.10
2018-06-03T05:07:23.402Z,18.30
2018-06-03T05:09:51.750Z,18.30
2018-06-03T05:12:20.625Z,18.50
2018-06-03T05:14:48.905Z,18.50
2018-06-03T05:17:17.350Z,18.70
2018-06-03T05:19:45.949Z,18.60
2018-06-03T05:22:14.296Z,18.70
2018-06-03T05:24:43.511Z,18.70
2018-06-03T05:27:11.814Z,18.80
2018-06-03T05:29:40.114Z,18.80
2018-06-03T05:32:08.425Z,18.90
2018-06-03T05:34:36.618Z,19.00
2018-06-03T05:37:05.141Z,18.90
2018-06-03T05:39:33.648Z,18.90
2018-06-03T05:42:01.836Z,18.90
2018-06-03T05:44:30.360Z,19.00
2018-06-03T05:46:58.541Z,19.10
2018-06-03T05:49:26.944Z,19.00
2018-06-03T05:51:55.290Z,19.10
2018-06-03T05:56:51.598Z,19.30
2018-06-03T05:59:19.813Z,19.40
2018-06-03T06:01:48.628Z,19.30
2018-06-03T06:04:16.857Z,19.30
2018-06-03T06:06:45.070Z,19.40
2018-06-03T06:09:14.008Z,19.50
2018-06-03T06:11:42.500Z,19.60
2018-06-03T06:14:10.755Z,19.70
2018-06-03T06:16:38.939Z,19.80
2018-06-03T06:19:07.461Z,19.80
2018-06-03T06:21:36.214Z,19.80
2018-06-03T06:24:04.428Z,19.90
2018-06-03T06:26:33.374Z,20.10
2018-06-03T06:29:01.608Z,20.20
2018-06-03T06:31:29.949Z,20.20
2018-06-03T06:33:58.414Z,20.40
2018-06-03T06:36:26.952Z,20.50
2018-06-03T06:38:55.297Z,20.70
2018-06-03T06:41:23.475Z,20.70
2018-06-03T06:43:51.744Z,20.80
2018-06-03T06:46:20.060Z,20.90
2018-06-03T06:48:48.249Z,20.50
2018-06-03T06:51:16.578Z,21.00
2018-06-03T06:53:45.431Z,21.10
2018-06-03T06:56:14.236Z,21.20
2018-06-03T06:58:42.911Z,21.20
2018-06-03T07:01:11.474Z,21.10
2018-06-03T07:03:39.750Z,21.20
2018-06-03T07:06:07.971Z,21.30
2018-06-03T07:08:36.445Z,21.50
2018-06-03T07:11:05.193Z,21.50
2018-06-03T07:13:33.734Z,21.60
2018-06-03T07:16:01.933Z,21.80
2018-06-03T07:18:30.106Z,21.90
2018-06-03T07:20:58.366Z,22.00
2018-06-03T07:23:26.894Z,22.10
2018-06-03T07:25:55.092Z,22.20
2018-06-03T07:28:23.625Z,22.40
2018-06-03T07:30:51.844Z,22.50
2018-06-03T07:33:20.081Z,22.60
2018-06-03T07:35:48.303Z,22.60
2018-06-03T07:38:16.845Z,22.60
2018-06-03T07:40:46.155Z,22.70
2018-06-03T07:43:14.775Z,22.70
2018-06-03T07:45:43.112Z,22.70
2018-06-03T07:48:11.837Z,22.80
2018-06-03T07:50:40.598Z,23.10
2018-06-03T07:53:09.874Z,23.10
2018-06-03T07:55:38.653Z,23.30
2018-06-03T07:58:07.360Z,23.40
2018-06-03T08:00:35.542Z,23.30
2018-06-03T08:03:04.564Z,23.40
2018-06-03T08:05:33.325Z,23.50
2018-06-03T08:08:01.521Z,23.40
2018-06-03T08:10:30.348Z,23.40
2018-06-03T08:12:58.840Z,23.60
2018-06-03T08:15:27.169Z,23.60
2018-06-03T08:17:55.675Z,23.70
2018-06-03T08:20:24.833Z,23.90
2018-06-03T08:22:53.540Z,23.90
2018-06-03T08:25:21.756Z,23.90
2018-06-03T08:27:50.751Z,24.00
2018-06-03T08:30:18.985Z,24.10
2018-06-03T08:32:47.706Z,24.20
2018-06-03T08:35:16.471Z,24.20
2018-06-03T08:37:44.987Z,24.20
2018-06-03T08:40:14.234Z,24.40
2018-06-03T08:42:42.778Z,24.40
2018-06-03T08:45:11.813Z,24.30
2018-06-03T08:47:40.390Z,24.30
2018-06-03T08:50:09.042Z,24.40
2018-06-03T08:52:38.102Z,24.50
2018-06-03T08:55:06.613Z,24.60
2018-06-03T08:57:35.866Z,24.80
2018-06-03T09:00:04.834Z,24.80
2018-06-03T09:02:33.476Z,24.70
2018-06-03T09:05:02.405Z,24.90
2018-06-03T09:07:31.215Z,25.00
2018-06-03T09:09:59.991Z,25.10
2018-06-03T09:12:28.879Z,24.80
2018-06-03T09:14:57.343Z,25.00
2018-06-03T09:17:26.012Z,24.90
2018-06-03T09:19:54.592Z,24.90
2018-06-03T09:22:23.070Z,24.80
2018-06-03T09:24:51.700Z,25.00
2018-06-03T09:27:20.456Z,25.20
2018-06-03T09:29:49.184Z,25.00
2018-06-03T09:32:18.094Z,25.10
2018-06-03T09:34:46.987Z,25.00
2018-06-03T09:37:15.439Z,25.20
2018-06-03T09:39:44.013Z,25.50
2018-06-03T09:42:13.313Z,25.30
2018-06-03T09:44:42.373Z,25.20
2018-06-03T09:47:10.827Z,25.50
2018-06-03T09:49:39.154Z,25.80
2018-06-03T09:52:08.612Z,26.10
2018-06-03T09:54:37.391Z,26.30
2018-06-03T09:57:05.669Z,26.40
2018-06-03T09:59:34.802Z,26.50
2018-06-03T10:02:03.341Z,26.20
2018-06-03T10:04:31.687Z,26.40
2018-06-03T10:07:00.441Z,26.60
2018-06-03T10:09:29.130Z,26.70
2018-06-03T10:11:57.825Z,26.60
2018-06-03T10:14:26.665Z,26.40
2018-06-03T10:16:55.245Z,26.60
2018-06-03T10:19:23.808Z,26.70
2018-06-03T10:21:51.962Z,26.70
2018-06-03T10:24:20.998Z,27.00
2018-06-03T10:26:49.954Z,27.10
2018-06-03T10:29:18.549Z,27.30
2018-06-03T10:31:46.946Z,27.50
2018-06-03T10:34:15.732Z,27.20
2018-06-03T10:36:45.368Z,27.40
2018-06-03T10:41:43.036Z,27.50
2018-06-03T10:44:12.090Z,27.90
2018-06-03T10:46:40.460Z,28.20
2018-06-03T10:49:09.407Z,28.50
2018-06-03T10:51:39.850Z,28.70
2018-06-03T10:54:08.974Z,29.00
2018-06-03T10:56:38.095Z,28.70
2018-06-03T10:59:06.509Z,28.80
2018-06-03T11:01:35.552Z,28.40
2018-06-03T11:04:03.809Z,28.50
2018-06-03T11:06:32.737Z,28.40
2018-06-03T11:09:01.342Z,28.50
2018-06-03T11:11:29.537Z,28.50
2018-06-03T11:13:58.003Z,28.10
2018-06-03T11:16:26.669Z,28.00
2018-06-03T11:18:55.209Z,27.60
2018-06-03T11:21:23.727Z,27.50
2018-06-03T11:23:52.877Z,27.60
2018-06-03T11:26:21.097Z,28.10
2018-06-03T11:28:50.095Z,28.60
2018-06-03T11:31:19.045Z,28.70
2018-06-03T11:33:48.261Z,28.70
2018-06-03T11:36:16.820Z,28.60
2018-06-03T11:38:46.215Z,28.30
2018-06-03T11:41:15.463Z,28.40
2018-06-03T11:43:44.521Z,28.40
2018-06-03T11:46:13.264Z,28.20
2018-06-03T11:48:42.030Z,28.40
2018-06-03T11:51:10.962Z,28.50
2018-06-03T11:56:07.574Z,28.00
2018-06-03T11:58:55.041Z,28.30
2018-06-03T12:01:25.220Z,28.30
2018-06-03T12:03:53.629Z,28.30
2018-06-03T12:06:22.367Z,28.00
2018-06-03T12:08:51.020Z,28.00
2018-06-03T12:11:19.297Z,27.90
2018-06-03T12:13:48.085Z,27.90
2018-06-03T12:16:17.043Z,28.00
2018-06-03T12:18:45.661Z,28.00
2018-06-03T12:21:14.160Z,28.30
2018-06-03T12:23:42.830Z,28.40
2018-06-03T12:26:11.595Z,28.50
2018-06-03T12:28:40.635Z,28.60
2018-06-03T12:31:09.632Z,28.70
2018-06-03T12:33:38.334Z,28.60
2018-06-03T12:36:07.681Z,28.60
2018-06-03T12:38:36.539Z,28.70
2018-06-03T12:41:05.688Z,28.80
2018-06-03T12:43:34.388Z,28.90
2018-06-03T12:46:03.269Z,28.90
2018-06-03T12:48:31.922Z,28.90
2018-06-03T12:51:00.760Z,28.80
2018-06-03T12:53:29.398Z,29.10
2018-06-03T12:55:58.169Z,29.40
2018-06-03T12:58:26.815Z,29.60
2018-06-03T13:00:55.529Z,29.90
2018-06-03T13:03:24.210Z,30.00
2018-06-03T13:05:52.523Z,30.10
2018-06-03T13:08:21.684Z,30.50
2018-06-03T13:10:50.916Z,30.60
2018-06-03T13:13:20.087Z,30.70
2018-06-03T13:15:48.491Z,31.10
2018-06-03T13:18:17.206Z,31.10
2018-06-03T13:20:45.889Z,31.10
2018-06-03T13:23:15.336Z,30.80
2018-06-03T13:25:44.233Z,30.50
2018-06-03T13:28:13.137Z,30.20
2018-06-03T13:30:41.759Z,30.10
2018-06-03T13:33:09.986Z,29.90
2018-06-03T13:35:38.209Z,30.40
2018-06-03T13:38:06.523Z,30.90
2018-06-03T13:40:35.087Z,31.20
2018-06-03T13:43:03.373Z,32.40
2018-06-03T13:45:33.864Z,31.80
2018-06-03T13:48:02.711Z,32.00
2018-06-03T13:50:31.217Z,32.60
2018-06-03T13:53:00.501Z,33.20
2018-06-03T13:55:30.007Z,33.50
2018-06-03T13:57:58.568Z,34.60
2018-06-03T14:00:28.574Z,35.20
2018-06-03T14:02:57.428Z,36.10
2018-06-03T14:05:26.205Z,36.00
2018-06-03T14:07:55.781Z,36.40
2018-06-03T14:12:52.703Z,34.70
2018-06-03T14:15:21.216Z,33.60
2018-06-03T14:17:49.670Z,32.80
2018-06-03T14:20:18.419Z,32.00
2018-06-03T14:22:46.976Z,31.00
2018-06-03T14:25:15.731Z,30.50
2018-06-03T14:27:44.237Z,30.50
2018-06-03T14:30:12.888Z,31.00
2018-06-03T14:32:41.818Z,31.10
2018-06-03T14:35:10.781Z,30.80
2018-06-03T14:37:39.333Z,30.40
2018-06-03T14:40:08.262Z,31.00
2018-06-03T14:42:37.029Z,32.00
2018-06-03T14:45:05.369Z,31.90
2018-06-03T14:47:34.252Z,32.00
2018-06-03T14:50:02.569Z,32.60
2018-06-03T14:52:31.243Z,33.20
2018-06-03T14:55:00.360Z,33.60
2018-06-03T14:57:29.033Z,34.10
2018-06-03T14:59:58.177Z,34.00
2018-06-03T15:02:26.926Z,34.00
2018-06-03T15:04:55.515Z,35.00
2018-06-03T15:07:23.986Z,35.50
2018-06-03T15:09:52.361Z,35.30
2018-06-03T15:12:21.083Z,34.70
2018-06-03T15:14:49.543Z,34.90
2018-06-03T15:19:46.671Z,35.70
2018-06-03T15:22:14.848Z,36.50
2018-06-03T15:24:43.405Z,36.50
2018-06-03T15:27:12.221Z,36.00
2018-06-03T15:29:40.436Z,35.00
2018-06-03T15:32:08.974Z,33.70
2018-06-03T15:34:37.776Z,32.70
2018-06-03T15:37:07.388Z,32.20
2018-06-03T15:39:36.079Z,31.70
2018-06-03T15:42:04.503Z,31.50
2018-06-03T15:44:33.027Z,31.10
2018-06-03T15:47:01.854Z,30.90
2018-06-03T15:49:30.296Z,30.70
2018-06-03T15:51:58.823Z,30.50
2018-06-03T15:54:27.474Z,30.40
2018-06-03T15:56:56.228Z,30.60
2018-06-03T15:59:24.805Z,31.50
2018-06-03T16:01:53.006Z,32.40
2018-06-03T16:04:21.357Z,33.20
2018-06-03T16:06:49.808Z,33.90
2018-06-03T16:09:18.885Z,34.60
2018-06-03T16:11:48.179Z,35.30
2018-06-03T16:14:16.755Z,35.40
2018-06-03T16:16:45.080Z,35.80
2018-06-03T16:19:13.565Z,36.30
2018-06-03T16:21:42.754Z,35.80
2018-06-03T16:24:11.835Z,38.40
2018-06-03T16:26:39.984Z,36.70
2018-06-03T16:31:36.581Z,36.70
2018-06-03T16:34:05.253Z,36.50
2018-06-03T16:36:34.191Z,36.30
2018-06-03T16:39:06.379Z,35.90
2018-06-03T16:41:36.772Z,35.90
2018-06-03T16:44:05.831Z,36.10
2018-06-03T16:46:36.266Z,35.90
2018-06-03T16:49:04.984Z,36.10
2018-06-03T16:54:03.313Z,35.40
2018-06-03T16:56:31.981Z,35.40
2018-06-03T16:59:01.543Z,35.70
2018-06-03T17:01:30.674Z,35.40
2018-06-03T17:04:00.071Z,35.60
2018-06-03T17:06:28.582Z,35.60
2018-06-03T17:08:56.897Z,35.50
2018-06-03T17:11:26.085Z,36.50
2018-06-03T17:13:55.164Z,35.30
2018-06-03T17:16:23.630Z,35.00
2018-06-03T17:18:52.498Z,34.70
2018-06-03T17:21:21.507Z,34.90
2018-06-03T17:23:51.257Z,35.20
2018-06-03T17:26:19.795Z,35.40
2018-06-03T17:28:49.657Z,35.00
2018-06-03T17:31:20.130Z,34.40
2018-06-03T17:33:49.152Z,34.10
2018-06-03T17:36:17.384Z,33.30
2018-06-03T17:38:45.754Z,32.70
2018-06-03T17:43:42.681Z,31.40
2018-06-03T17:46:10.886Z,31.00
2018-06-03T17:48:39.351Z,30.80
2018-06-03T17:51:07.861Z,30.50
2018-06-03T17:53:36.098Z,30.10
2018-06-03T17:56:04.282Z,29.90
2018-06-03T17:58:32.830Z,29.70
2018-06-03T18:01:01.081Z,29.80
2018-06-03T18:03:29.286Z,29.50
2018-06-03T18:05:57.565Z,29.30
2018-06-03T18:08:25.793Z,29.10
2018-06-03T18:10:54.524Z,29.00
2018-06-03T18:13:23.101Z,28.90
2018-06-03T18:15:51.765Z,28.70
2018-06-03T18:18:20.055Z,28.50
2018-06-03T18:20:48.300Z,28.40
2018-06-03T18:23:16.838Z,28.40
2018-06-03T18:25:45.367Z,28.30
2018-06-03T18:28:13.577Z,28.20
2018-06-03T18:30:41.819Z,28.20
2018-06-03T18:33:12.515Z,28.00
2018-06-03T18:35:40.722Z,27.90
2018-06-03T18:38:09.299Z,28.00
2018-06-03T18:40:37.510Z,27.70
2018-06-03T18:43:05.780Z,27.60
2018-06-03T18:45:34.345Z,27.50
2018-06-03T18:48:02.641Z,27.50
2018-06-03T18:50:38.000Z,27.40
2018-06-03T18:53:06.749Z,27.30
2018-06-03T18:55:35.359Z,27.20
2018-06-03T18:58:04.408Z,27.10
2018-06-03T19:00:33.251Z,26.90
2018-06-03T19:03:01.607Z,26.80
2018-06-03T19:05:29.930Z,26.60
2018-06-03T19:07:58.481Z,26.60
2018-06-03T19:10:27.230Z,26.40
2018-06-03T19:12:55.868Z,26.20
2018-06-03T19:15:24.325Z,26.20
2018-06-03T19:17:53.227Z,26.00
2018-06-03T19:20:21.623Z,25.90
2018-06-03T19:22:50.669Z,25.80
2018-06-03T19:25:19.934Z,25.80
2018-06-03T19:27:49.420Z,25.80
2018-06-03T19:30:17.951Z,25.70
2018-06-03T19:32:47.179Z,25.50
2018-06-03T19:35:16.041Z,25.40
2018-06-03T19:37:44.584Z,25.30
2018-06-03T19:40:12.817Z,25.30
2018-06-03T19:42:41.756Z,25.20
2018-06-03T19:45:10.050Z,25.20
2018-06-03T19:50:06.640Z,25.00
2018-06-03T19:52:34.849Z,25.00
2018-06-03T19:55:03.815Z,25.00
2018-06-03T19:57:32.256Z,24.90
2018-06-03T20:00:03.655Z,24.80
2018-06-03T20:02:31.942Z,24.80
2018-06-03T20:05:00.730Z,24.70
2018-06-03T20:07:29.908Z,24.70
2018-06-03T20:10:01.107Z,24.60
2018-06-03T20:12:31.177Z,24.50
2018-06-03T20:15:00.362Z,24.40
2018-06-03T20:17:28.984Z,24.40
2018-06-03T20:19:57.443Z,24.40
2018-06-03T20:22:26.278Z,24.30
2018-06-03T20:24:56.042Z,24.20
2018-06-03T20:27:24.218Z,24.10
2018-06-03T20:29:53.520Z,24.00
2018-06-03T20:32:21.740Z,23.90
2018-06-03T20:34:49.991Z,24.00
2018-06-03T20:37:18.248Z,23.70
2018-06-03T20:39:47.442Z,23.70
2018-06-03T20:42:16.304Z,23.80
2018-06-03T20:44:45.003Z,23.80
2018-06-03T20:47:13.331Z,23.50
2018-06-03T20:49:41.714Z,23.40
2018-06-03T20:52:11.633Z,23.40
2018-06-03T20:54:40.069Z,23.40
2018-06-03T20:57:08.352Z,23.20
2018-06-03T20:59:36.761Z,23.10
2018-06-03T21:02:05.233Z,23.10
2018-06-03T21:04:34.001Z,23.10
2018-06-03T21:07:02.453Z,23.10
2018-06-03T21:09:30.966Z,23.10
2018-06-03T21:11:59.744Z,23.00
2018-06-03T21:14:28.330Z,22.90
2018-06-03T21:16:57.122Z,22.80
2018-06-03T21:19:25.900Z,22.70
2018-06-03T21:21:55.820Z,22.60
2018-06-03T21:24:24.267Z,22.60
2018-06-03T21:26:52.513Z,22.60
2018-06-03T21:29:20.751Z,22.40
2018-06-03T21:31:49.591Z,22.40
2018-06-03T21:34:17.782Z,22.40
2018-06-03T21:36:46.070Z,22.40
2018-06-03T21:39:14.327Z,22.30
2018-06-03T21:41:42.501Z,22.30
2018-06-03T21:44:11.129Z,22.20
2018-06-03T21:46:40.356Z,22.20
2018-06-03T21:49:08.720Z,22.20
2018-06-03T21:51:38.149Z,22.20
2018-06-03T21:54:06.477Z,22.00
2018-06-03T21:56:34.836Z,22.10
2018-06-03T21:59:05.406Z,22.10
2018-06-03T22:01:33.906Z,22.00
2018-06-03T22:04:02.551Z,22.00
2018-06-03T22:06:30.784Z,21.90
2018-06-03T22:08:59.084Z,21.90
2018-06-03T22:11:27.321Z,21.80
2018-06-03T22:13:56.385Z,21.80
2018-06-03T22:16:25.790Z,21.70
2018-06-03T22:18:54.162Z,21.80
2018-06-03T22:21:22.429Z,21.70
2018-06-03T22:23:50.974Z,21.80
2018-06-03T22:26:19.247Z,21.80
2018-06-03T22:28:48.510Z,21.70
2018-06-03T22:31:17.262Z,21.70
2018-06-03T22:33:45.611Z,21.60
2018-06-03T22:36:13.912Z,21.50
2018-06-03T22:38:42.162Z,21.40
2018-06-03T22:41:10.852Z,21.40
2018-06-03T22:43:39.621Z,21.30
2018-06-03T22:46:08.220Z,21.30
2018-06-03T22:48:36.419Z,21.30
2018-06-03T22:51:04.978Z,21.30
2018-06-03T22:53:33.185Z,21.20
2018-06-03T22:56:01.781Z,21.20
2018-06-03T22:58:30.405Z,21.20
2018-06-03T23:00:58.633Z,21.20
2018-06-03T23:03:27.281Z,21.20
2018-06-03T23:05:55.582Z,21.20
2018-06-03T23:08:23.869Z,21.10
2018-06-03T23:10:52.186Z,21.00
2018-06-03T23:13:20.441Z,20.90
2018-06-03T23:15:49.158Z,21.00
2018-06-03T23:18:17.487Z,20.80
2018-06-03T23:20:46.648Z,20.70
2018-06-03T23:23:14.898Z,20.70
2018-06-03T23:25:43.304Z,20.80
2018-06-03T23:28:11.523Z,20.70
2018-06-03T23:30:39.755Z,20.70
2018-06-03T23:33:08.050Z,20.70
2018-06-03T23:35:36.641Z,20.70
2018-06-03T23:38:04.818Z,20.60
2018-06-03T23:40:33.389Z,20.60
2018-06-03T23:43:01.654Z,20.50
2018-06-03T23:45:29.846Z,20.50
2018-06-03T23:47:58.370Z,20.40
2018-06-03T23:50:26.650Z,20.40
2018-06-03T23:52:54.924Z,20.30
